createdAt,value
2023-05-07T00:02:59.607Z,12.20
2023-05-07T00:06:02.405Z,11.40
2023-05-07T00:09:05.232Z,14.15
2023-05-07T00:12:07.165Z,13.88
2023-05-07T00:15:09.641Z,14.48
2023-05-07T00:18:12.567Z,12.80
2023-05-07T00:21:14.508Z,14.65
2023-05-07T00:24:16.211Z,17.92
2023-05-07T00:27:17.932Z,12.13
2023-05-07T00:30:19.735Z,12.90
2023-05-07T00:33:23.269Z,11.15
2023-05-07T00:36:25.011Z,10.85
2023-05-07T00:39:26.784Z,12.00
2023-05-07T00:42:28.929Z,12.20
2023-05-07T00:45:30.924Z,11.73
2023-05-07T00:48:33.860Z,11.73
2023-05-07T00:51:35.600Z,12.32
2023-05-07T00:54:37.630Z,13.25
2023-05-07T00:57:41.116Z,13.30
2023-05-07T01:00:42.957Z,15.25
2023-05-07T01:03:44.854Z,10.52
2023-05-07T01:06:47.650Z,13.07
2023-05-07T01:09:53.614Z,12.55
2023-05-07T01:12:55.880Z,13.80
2023-05-07T01:15:57.835Z,12.50
2023-05-07T01:18:59.706Z,10.98
2023-05-07T01:22:09.430Z,14.18
2023-05-07T01:25:11.102Z,14.65
2023-05-07T01:28:12.857Z,12.85
2023-05-07T01:31:16.730Z,12.35
2023-05-07T01:34:20.345Z,15.32
2023-05-07T01:37:22.835Z,12.57
2023-05-07T01:40:26.608Z,13.45
2023-05-07T01:43:29.464Z,13.98
2023-05-07T01:46:33.075Z,13.55
2023-05-07T01:49:35.290Z,14.13
2023-05-07T01:52:40.245Z,14.05
2023-05-07T01:55:41.933Z,15.20
2023-05-07T01:58:43.617Z,14.30
2023-05-07T02:01:45.392Z,15.13
2023-05-07T02:04:47.184Z,13.38
2023-05-07T02:07:49.107Z,12.15
2023-05-07T02:10:52.531Z,15.43
2023-05-07T02:13:54.385Z,14.15
2023-05-07T02:16:56.201Z,14.48
2023-05-07T02:19:57.966Z,22.42
2023-05-07T02:22:59.748Z,15.60
2023-05-07T02:26:01.477Z,16.10
2023-05-07T02:29:03.250Z,19.73
2023-05-07T02:32:05.195Z,14.45
2023-05-07T02:35:07.332Z,17.10
2023-05-07T02:38:11.694Z,14.63
2023-05-07T02:41:13.406Z,14.55
2023-05-07T02:44:15.125Z,13.25
2023-05-07T02:47:16.855Z,17.52
2023-05-07T02:50:18.642Z,14.13
2023-05-07T02:53:20.375Z,14.73
2023-05-07T02:56:22.166Z,14.95
2023-05-07T02:59:24.294Z,15.35
2023-05-07T03:02:26.014Z,13.02
2023-05-07T03:05:27.777Z,18.23
2023-05-07T03:08:29.421Z,13.95
2023-05-07T03:11:31.353Z,16.92
2023-05-07T03:14:33.100Z,14.50
2023-05-07T03:17:34.921Z,17.67
2023-05-07T03:20:37.620Z,14.77
2023-05-07T03:23:39.742Z,13.23
2023-05-07T03:26:41.470Z,15.25
2023-05-07T03:29:43.193Z,13.98
2023-05-07T03:32:45.028Z,13.32
2023-05-07T03:35:46.877Z,15.60
2023-05-07T03:38:50.253Z,13.95
2023-05-07T03:42:08.752Z,13.95
2023-05-07T03:45:12.501Z,16.15
2023-05-07T03:48:20.330Z,14.57
2023-05-07T03:51:34.835Z,12.45
2023-05-07T03:54:48.888Z,15.15
2023-05-07T03:58:01.224Z,17.62
2023-05-07T04:01:06.124Z,18.50
2023-05-07T04:04:08.320Z,16.42
2023-05-07T04:07:14.487Z,15.63
2023-05-07T04:10:35.872Z,15.20
2023-05-07T04:13:39.800Z,13.30
2023-05-07T04:16:51.017Z,15.05
2023-05-07T04:19:53.015Z,14.70
2023-05-07T04:22:59.051Z,14.60
2023-05-07T04:26:22.549Z,15.75
2023-05-07T04:29:32.692Z,16.15
2023-05-07T04:32:37.742Z,13.82
2023-05-07T04:35:47.304Z,14.70
2023-05-07T04:38:50.230Z,14.10
2023-05-07T04:41:55.709Z,14.43
2023-05-07T04:45:09.952Z,15.05
2023-05-07T04:48:26.076Z,17.42
2023-05-07T04:51:33.820Z,15.65
2023-05-07T04:54:37.070Z,14.52
2023-05-07T04:58:03.113Z,16.75
2023-05-07T05:01:07.766Z,13.02
2023-05-07T05:04:15.952Z,18.33
2023-05-07T05:07:18.737Z,13.48
2023-05-07T05:10:34.974Z,20.48
2023-05-07T05:13:36.744Z,16.55
2023-05-07T05:16:43.657Z,14.87
2023-05-07T05:19:49.633Z,13.62
2023-05-07T05:22:52.348Z,14.38
2023-05-07T05:25:59.103Z,16.45
2023-05-07T05:29:05.757Z,16.67
2023-05-07T05:32:12.952Z,16.35
2023-05-07T05:35:15.355Z,15.87
2023-05-07T05:38:17.107Z,14.93
2023-05-07T05:41:23.683Z,15.98
2023-05-07T05:44:32.459Z,16.40
2023-05-07T05:47:35.377Z,17.50
2023-05-07T05:50:38.037Z,16.95
2023-05-07T05:54:02.911Z,15.60
2023-05-07T05:57:05.879Z,14.10
2023-05-07T06:00:09.656Z,16.55
2023-05-07T06:03:14.428Z,13.35
2023-05-07T06:06:27.006Z,18.17
2023-05-07T06:09:33.627Z,15.65
2023-05-07T06:12:35.425Z,18.73
2023-05-07T06:15:41.548Z,23.00
2023-05-07T06:19:03.228Z,12.35
2023-05-07T06:22:05.055Z,12.90
2023-05-07T06:25:07.483Z,14.23
2023-05-07T06:28:12.317Z,14.90
2023-05-07T06:31:17.968Z,13.57
2023-05-07T06:34:25.657Z,10.98
2023-05-07T06:37:28.467Z,11.12
2023-05-07T06:40:31.320Z,9.48
2023-05-07T06:43:33.359Z,9.18
2023-05-07T06:46:41.497Z,8.38
2023-05-07T06:49:44.694Z,10.27
2023-05-07T06:52:51.686Z,12.07
2023-05-07T06:56:11.503Z,13.05
2023-05-07T06:59:36.542Z,13.82
2023-05-07T07:03:00.688Z,10.38
2023-05-07T07:06:04.413Z,10.80
2023-05-07T07:09:18.367Z,11.35
2023-05-07T07:12:19.983Z,13.32
2023-05-07T07:15:42.244Z,7.93
2023-05-07T07:18:50.476Z,10.25
2023-05-07T07:22:02.244Z,10.15
2023-05-07T07:25:17.417Z,11.02
2023-05-07T07:28:30.500Z,11.30
2023-05-07T07:31:45.320Z,10.75
2023-05-07T07:34:50.674Z,7.30
2023-05-07T07:38:07.366Z,10.90
2023-05-07T07:41:11.130Z,6.25
2023-05-07T07:44:15.974Z,12.43
2023-05-07T07:47:33.370Z,4.60
2023-05-07T07:50:45.115Z,7.62
2023-05-07T07:53:47.289Z,5.78
2023-05-07T07:56:51.073Z,8.45
2023-05-07T07:59:55.069Z,7.07
2023-05-07T08:02:57.866Z,9.43
2023-05-07T08:05:59.776Z,6.07
2023-05-07T08:09:03.122Z,5.43
2023-05-07T08:12:05.758Z,5.37
2023-05-07T08:15:12.740Z,3.97
2023-05-07T08:18:14.543Z,4.78
2023-05-07T08:21:16.399Z,5.72
2023-05-07T08:24:18.775Z,7.07
2023-05-07T08:27:20.395Z,4.57
2023-05-07T08:30:23.111Z,3.35
2023-05-07T08:33:24.759Z,8.80
2023-05-07T08:36:26.935Z,6.53
2023-05-07T08:39:28.657Z,9.65
2023-05-07T08:42:31.303Z,6.72
2023-05-07T08:45:34.856Z,4.00
2023-05-07T08:48:37.419Z,6.87
2023-05-07T08:51:39.440Z,5.07
2023-05-07T08:54:41.873Z,4.05
2023-05-07T08:57:44.594Z,3.53
2023-05-07T09:00:48.105Z,5.45
2023-05-07T09:03:51.092Z,3.83
2023-05-07T09:06:52.860Z,4.20
2023-05-07T09:09:56.286Z,6.87
2023-05-07T09:12:57.989Z,5.18
2023-05-07T09:16:11.229Z,4.37
2023-05-07T09:19:12.969Z,10.55
2023-05-07T09:22:15.253Z,4.00
2023-05-07T09:25:29.379Z,4.57
2023-05-07T09:28:31.086Z,5.70
2023-05-07T09:31:32.783Z,6.72
2023-05-07T09:34:35.125Z,6.72
2023-05-07T09:37:37.310Z,6.55
2023-05-07T09:40:39.068Z,6.72
2023-05-07T09:43:41.799Z,4.93
2023-05-07T09:46:45.588Z,5.65
2023-05-07T09:49:49.277Z,4.28
2023-05-07T09:52:51.113Z,5.78
2023-05-07T09:55:53.796Z,5.55
2023-05-07T09:58:57.260Z,4.50
2023-05-07T10:02:01.561Z,4.65
2023-05-07T10:05:05.827Z,8.40
2023-05-07T10:08:09.294Z,4.50
2023-05-07T10:11:11.212Z,4.40
2023-05-07T10:14:13.410Z,4.57
2023-05-07T10:17:18.763Z,7.37
2023-05-07T10:20:20.726Z,3.55
2023-05-07T10:23:25.641Z,3.87
2023-05-07T10:26:30.953Z,8.60
2023-05-07T10:29:46.430Z,6.68
2023-05-07T10:32:53.948Z,3.87
2023-05-07T10:36:01.615Z,6.25
2023-05-07T10:39:04.044Z,2.85
2023-05-07T10:42:13.015Z,4.00
2023-05-07T10:45:15.774Z,7.47
2023-05-07T10:48:29.784Z,11.38
2023-05-07T10:51:33.687Z,6.20
2023-05-07T10:54:37.595Z,3.42
2023-05-07T10:57:39.772Z,7.00
2023-05-07T11:00:44.644Z,4.55
2023-05-07T11:04:16.010Z,3.37
2023-05-07T11:07:29.086Z,3.33
2023-05-07T11:10:50.758Z,5.82
2023-05-07T11:13:52.517Z,7.93
2023-05-07T11:17:06.036Z,3.65
2023-05-07T11:20:08.112Z,3.92
2023-05-07T11:23:29.824Z,4.75
2023-05-07T11:26:42.145Z,7.90
2023-05-07T11:29:48.326Z,5.62
2023-05-07T11:32:50.496Z,5.23
2023-05-07T11:35:54.822Z,7.75
2023-05-07T11:38:57.132Z,7.82
2023-05-07T11:41:59.118Z,28.42
2023-05-07T11:45:01.579Z,12.75
2023-05-07T11:48:03.477Z,5.15
2023-05-07T11:51:07.452Z,8.98
2023-05-07T11:54:09.879Z,34.83
2023-05-07T13:51:24.577Z,0.93
2023-05-07T13:54:26.067Z,0.20
2023-05-07T13:57:27.671Z,0.47
2023-05-07T14:00:30.183Z,1.00
2023-05-07T14:03:33.071Z,0.57
2023-05-07T14:06:34.761Z,0.30
2023-05-07T14:09:36.318Z,0.30
2023-05-07T14:12:38.214Z,0.20
2023-05-07T14:15:39.837Z,0.30
2023-05-07T14:18:41.353Z,0.28
2023-05-07T14:21:44.916Z,0.30
2023-05-07T14:24:48.566Z,0.30
2023-05-07T14:27:54.622Z,0.20
2023-05-07T14:30:56.458Z,0.20
2023-05-07T14:33:59.183Z,0.32
2023-05-07T14:37:01.170Z,0.20
2023-05-07T14:40:03.611Z,0.20
2023-05-07T14:43:05.305Z,0.20
2023-05-07T14:46:06.795Z,0.20
2023-05-07T14:49:12.283Z,0.20
2023-05-07T14:52:13.886Z,0.30
2023-05-07T14:55:15.632Z,0.30
2023-05-07T14:58:17.266Z,0.20
2023-05-07T15:01:18.918Z,0.30
2023-05-07T15:04:20.708Z,0.20
2023-05-07T15:07:22.415Z,0.30
2023-05-07T15:10:23.981Z,0.20
2023-05-07T15:13:25.761Z,0.57
2023-05-07T15:16:27.539Z,0.45
2023-05-07T15:19:30.443Z,0.20
2023-05-07T15:22:32.029Z,0.20
2023-05-07T15:25:34.884Z,0.20
2023-05-07T15:28:36.632Z,0.60
2023-05-07T15:31:40.930Z,0.20
2023-05-07T15:34:42.562Z,0.20
2023-05-07T15:37:44.659Z,0.20
2023-05-07T15:40:46.292Z,0.20
2023-05-07T15:43:49.256Z,0.20
2023-05-07T15:46:51.044Z,0.17
2023-05-07T15:49:52.938Z,0.20
2023-05-07T15:52:55.655Z,0.25
2023-05-07T15:55:57.270Z,0.10
2023-05-07T15:58:59.055Z,0.43
2023-05-07T16:02:01.891Z,0.20
2023-05-07T16:05:03.574Z,0.20
2023-05-07T16:08:05.348Z,0.20
2023-05-07T16:11:06.854Z,0.10
2023-05-07T16:14:08.411Z,0.20
2023-05-07T16:17:10.074Z,0.10
2023-05-07T16:20:13.179Z,0.20
2023-05-07T16:23:14.874Z,0.20
2023-05-07T16:26:16.725Z,0.20
2023-05-07T16:29:19.452Z,0.20
2023-05-07T16:32:20.983Z,0.20
2023-05-07T16:35:22.617Z,0.25
2023-05-07T16:38:24.200Z,0.32
2023-05-07T16:41:26.198Z,0.32
2023-05-07T16:44:27.839Z,0.20
2023-05-07T16:47:29.430Z,0.20
2023-05-07T16:50:31.089Z,0.30
2023-05-07T16:53:32.823Z,0.20
2023-05-07T16:56:34.296Z,0.32
2023-05-07T16:59:35.863Z,0.20
2023-05-07T17:02:37.581Z,0.20
2023-05-07T17:05:39.353Z,0.20
2023-05-07T17:08:43.089Z,0.30
2023-05-07T17:11:44.876Z,0.45
2023-05-07T17:14:46.534Z,0.20
2023-05-07T17:17:48.169Z,0.50
2023-05-07T17:20:49.716Z,0.20
2023-05-07T17:23:51.402Z,0.62
2023-05-07T17:26:52.963Z,0.50
2023-05-07T17:29:54.602Z,0.20
2023-05-07T17:33:03.730Z,0.55
2023-05-07T17:36:11.096Z,0.85
2023-05-07T17:39:12.724Z,0.20
2023-05-07T17:42:14.394Z,0.30
2023-05-07T17:45:16.167Z,0.32
2023-05-07T17:48:17.934Z,11.90
2023-05-07T17:51:19.504Z,0.20
2023-05-07T17:54:24.304Z,1.02
2023-05-07T17:57:26.772Z,0.37
2023-05-07T18:00:28.333Z,1.00
2023-05-07T18:03:30.745Z,0.30
2023-05-07T18:06:32.444Z,0.22
2023-05-07T18:09:34.047Z,0.37
2023-05-07T18:12:35.963Z,0.85
2023-05-07T18:15:37.627Z,0.60
2023-05-07T18:18:39.228Z,0.30
2023-05-07T18:21:40.842Z,0.30
2023-05-07T18:24:42.486Z,0.40
2023-05-07T18:27:44.371Z,0.30
2023-05-07T18:30:46.376Z,0.40
2023-05-07T18:33:47.927Z,0.30
2023-05-07T18:36:49.432Z,1.73
2023-05-07T18:39:51.194Z,0.30
2023-05-07T18:42:53.552Z,0.30
2023-05-07T18:45:55.681Z,0.35
2023-05-07T18:48:57.930Z,0.20
2023-05-07T18:52:00.358Z,0.40
2023-05-07T18:55:02.640Z,0.20
2023-05-07T18:58:04.538Z,0.40
2023-05-07T19:01:11.192Z,0.90
2023-05-07T19:04:13.693Z,0.30
2023-05-07T19:07:17.231Z,0.50
2023-05-07T19:10:26.774Z,0.30
2023-05-07T19:13:28.672Z,0.30
2023-05-07T19:16:33.142Z,0.30
2023-05-07T19:19:35.863Z,0.40
2023-05-07T19:22:40.640Z,0.30
2023-05-07T19:25:42.614Z,0.30
2023-05-07T19:28:45.382Z,3.22
2023-05-07T19:31:47.693Z,0.30
2023-05-07T19:34:49.951Z,0.30
2023-05-07T19:37:53.086Z,2.42
2023-05-07T19:41:12.186Z,0.40
2023-05-07T19:44:13.834Z,0.30
2023-05-07T19:47:16.988Z,0.30
2023-05-07T19:50:20.079Z,2.22
2023-05-07T19:53:23.318Z,0.40
2023-05-07T19:56:25.409Z,0.30
2023-05-07T19:59:33.225Z,0.30
2023-05-07T20:02:35.043Z,10.15
2023-05-07T20:05:36.800Z,0.30
2023-05-07T20:08:38.414Z,0.30
2023-05-07T20:11:40.238Z,0.30
2023-05-07T20:14:43.110Z,0.30
2023-05-07T20:17:44.729Z,0.30
2023-05-07T20:20:46.332Z,0.30
2023-05-07T20:23:48.260Z,0.30
2023-05-07T20:26:49.936Z,0.40
2023-05-07T20:29:52.226Z,0.35
2023-05-07T20:32:53.907Z,0.40
2023-05-07T20:35:57.806Z,0.30
2023-05-07T20:38:59.634Z,0.30
2023-05-07T20:42:01.254Z,0.30
2023-05-07T20:45:03.982Z,0.30
2023-05-07T20:48:06.013Z,0.20
2023-05-07T20:51:10.480Z,0.30
2023-05-07T20:54:13.066Z,0.30
2023-05-07T20:57:14.637Z,0.30
2023-05-07T21:00:17.513Z,0.30
2023-05-07T21:03:19.408Z,0.30
2023-05-07T21:06:21.109Z,0.30
2023-05-07T21:09:22.758Z,0.30
2023-05-07T21:12:24.381Z,0.40
2023-05-07T21:15:25.972Z,0.40
2023-05-07T21:18:30.831Z,0.45
2023-05-07T21:21:32.476Z,0.40
2023-05-07T21:24:34.191Z,0.80
2023-05-07T21:27:35.698Z,0.85
2023-05-07T21:30:37.297Z,0.55
2023-05-07T21:33:39.309Z,0.50
2023-05-07T21:36:40.924Z,0.30
2023-05-07T21:39:42.489Z,0.65
2023-05-07T21:42:43.973Z,0.50
2023-05-07T21:48:52.106Z,8.33
2023-05-07T21:51:53.730Z,7.55
2023-05-07T21:54:55.288Z,8.45
2023-05-07T21:58:05.066Z,7.25
2023-05-07T22:01:09.488Z,8.23
2023-05-07T22:04:11.246Z,7.62
2023-05-07T22:07:12.888Z,10.02
2023-05-07T22:10:14.598Z,7.65
2023-05-07T22:13:16.898Z,9.63
2023-05-07T22:16:18.562Z,7.43
2023-05-07T22:19:20.114Z,6.87
2023-05-07T22:22:21.638Z,7.68
2023-05-07T22:25:23.794Z,12.70
2023-05-07T22:28:25.537Z,7.60
2023-05-07T22:31:27.129Z,6.85
2023-05-07T22:34:29.835Z,6.65
2023-05-07T22:37:31.458Z,9.02
2023-05-07T22:40:33.119Z,9.48
2023-05-07T22:43:34.646Z,9.43
2023-05-07T22:46:36.259Z,8.35
2023-05-07T22:49:37.807Z,16.08
2023-05-07T22:52:39.371Z,6.00
2023-05-07T22:55:41.388Z,7.40
2023-05-07T22:58:42.913Z,8.25
2023-05-07T23:01:44.778Z,9.30
2023-05-07T23:04:46.303Z,9.32
2023-05-07T23:07:48.437Z,7.35
2023-05-07T23:10:49.984Z,11.00
2023-05-07T23:13:52.594Z,8.63
2023-05-07T23:16:54.210Z,6.65
2023-05-07T23:20:14.769Z,7.85
2023-05-07T23:23:16.460Z,4.93
2023-05-07T23:26:18.043Z,7.20
2023-05-07T23:29:19.552Z,8.25
2023-05-07T23:32:21.125Z,7.22
2023-05-07T23:35:22.774Z,7.20
2023-05-07T23:38:24.323Z,6.15
2023-05-07T23:41:25.936Z,7.30
2023-05-07T23:44:27.483Z,6.78
2023-05-07T23:47:29.087Z,5.68
2023-05-07T23:50:30.863Z,6.75
2023-05-07T23:53:32.457Z,4.93
2023-05-07T23:56:37.174Z,5.00
2023-05-07T23:59:38.776Z,5.72
